Terschelling, Netherlands

9:04 AM CEST on September 29, 2016 (GMT +0200)
West Terschelling | | Change Station

Elev 26 ft 53.37 °N, 5.22 °E | Updated 4 minutes ago

Mostly Cloudy
Mostly Cloudy
65.5 °F
Feels Like 65.5 °F
N
12.1
Wind Variable Wind from SSW
Gusts 20.0 mph

Today
High -- | Low -- °F
--% Chance of Precip.
Yesterday
High -- | Low -- °F
Precip. -- in
Pressure 29.86 in
Visibility 5.6 miles
Clouds Few 1200 ft
Mostly Cloudy 1500 ft
Mostly Cloudy 2100 ft
Dew Point 61 °F
Humidity 87%
Rainfall 0.00 in
Snow Depth Not available.
7:37 AM 7:19 PM
Waning Crescent, 3% visible
METAR EHVL 290655Z AUTO 23026KT 9000 BR FEW012 BKN015 BKN021 19/16 Q1011 WHT
Pressure 29.86 in
Visibility 5.6 miles
Clouds Few 1200 ft
Mostly Cloudy 1500 ft
Mostly Cloudy 2100 ft
Dew Point 61 °F
Humidity 87%
Rainfall 0.00 in
Snow Depth Not available.
7:37 AM 7:19 PM
Waning Crescent, 3% visible
METAR EHVL 290655Z AUTO 23026KT 9000 BR FEW012 BKN015 BKN021 19/16 Q1011 WHT

10-Day Weather Forecast

×

Almanac

Astronomy

Sep. 29, 2016 Rise Set
Actual Time
Civil Twilight
Nautical Twilight
Astronomical Twilight
Moon
Length of Visible Light
Length of Day
Tomorrow will be .
, % of the Moon is Illuminated

Today's Extremes

Country Highs Country Lows

Community

WunderPhotos

Upload Photos

1,942,446 photos uploaded!

WunderBlog® & News

Nearby

Air Quality

  Air Quality AQ Index Pollutant
Not available.

Snow Depth

Station Depth Elevation

Earthquake Activity

City Distance Mag. Time & Date
Minimum magnitude displayed is 2.5.

Coastal Water Temperatures

Place Temperature

Stations

Nearby Weather Stations

Station Location Temp. Windchill Dew Point Humidity Wind Precip. Elev Updated Type